createdAt,value
2022-11-24T00:01:32.259Z,27.50
2022-11-24T00:04:02.643Z,27.27
2022-11-24T00:06:33.634Z,28.30
2022-11-24T00:09:02.830Z,26.87
2022-11-24T00:11:33.207Z,27.87
2022-11-24T00:14:02.348Z,27.57
2022-11-24T00:16:34.086Z,26.10
2022-11-24T00:19:04.870Z,25.57
2022-11-24T00:21:34.327Z,26.33
2022-11-24T00:24:03.975Z,25.33
2022-11-24T00:26:33.954Z,24.53
2022-11-24T00:29:07.988Z,27.23
2022-11-24T00:31:40.172Z,25.50
2022-11-24T00:34:11.648Z,26.40
2022-11-24T00:36:40.905Z,27.37
2022-11-24T00:39:14.014Z,26.57
2022-11-24T00:41:44.730Z,27.73
2022-11-24T00:44:15.025Z,25.77
2022-11-24T00:46:45.796Z,26.00
2022-11-24T00:49:15.222Z,26.77
2022-11-24T00:51:44.883Z,26.30
2022-11-24T00:54:14.339Z,26.13
2022-11-24T00:56:43.702Z,27.07
2022-11-24T00:59:12.626Z,23.97
2022-11-24T01:01:42.990Z,25.00
2022-11-24T01:04:13.846Z,25.00
2022-11-24T01:06:43.123Z,28.13
2022-11-24T01:09:12.201Z,25.83
2022-11-24T01:11:58.942Z,27.53
2022-11-24T01:14:28.096Z,26.47
2022-11-24T01:16:57.976Z,28.47
2022-11-24T01:19:29.056Z,26.90
2022-11-24T01:21:58.565Z,27.20
2022-11-24T01:24:27.697Z,26.73
2022-11-24T01:26:57.056Z,25.70
2022-11-24T01:29:27.445Z,26.97
2022-11-24T01:31:56.891Z,26.13
2022-11-24T01:34:28.203Z,27.77
2022-11-24T01:36:57.617Z,25.10
2022-11-24T01:39:27.266Z,27.03
2022-11-24T01:41:56.472Z,24.50
2022-11-24T01:44:27.400Z,26.93
2022-11-24T01:47:00.248Z,24.93
2022-11-24T01:49:38.410Z,25.27
2022-11-24T01:52:10.188Z,24.67
2022-11-24T01:54:42.175Z,27.03
2022-11-24T01:57:14.744Z,28.43
2022-11-24T01:59:44.263Z,24.50
2022-11-24T02:02:14.299Z,25.87
2022-11-24T02:04:46.467Z,24.90
2022-11-24T02:07:16.218Z,25.23
2022-11-24T02:09:48.395Z,25.33
2022-11-24T02:12:17.809Z,24.80
2022-11-24T02:14:46.673Z,24.40
2022-11-24T02:17:15.949Z,25.00
2022-11-24T02:19:55.435Z,26.80
2022-11-24T02:22:32.270Z,26.77
2022-11-24T02:25:07.809Z,25.77
2022-11-24T02:27:58.260Z,24.60
2022-11-24T02:30:27.545Z,25.47
2022-11-24T02:32:56.668Z,24.00
2022-11-24T02:35:26.965Z,25.03
2022-11-24T02:37:56.000Z,25.00
2022-11-24T02:40:27.097Z,24.93
2022-11-24T02:42:59.994Z,25.50
2022-11-24T02:45:31.701Z,25.20
2022-11-24T02:48:01.197Z,25.67
2022-11-24T02:50:30.634Z,24.77
2022-11-24T02:52:59.782Z,23.67
2022-11-24T02:55:29.431Z,24.30
2022-11-24T02:58:00.344Z,25.80
2022-11-24T03:00:29.850Z,25.00
2022-11-24T03:02:58.917Z,23.60
2022-11-24T03:05:27.969Z,25.87
2022-11-24T03:07:57.638Z,23.93
2022-11-24T03:10:26.541Z,24.83
2022-11-24T03:12:56.883Z,21.87
2022-11-24T03:15:27.709Z,21.63
2022-11-24T03:17:57.906Z,23.17
2022-11-24T03:20:27.339Z,21.67
2022-11-24T03:22:56.528Z,22.63
2022-11-24T03:25:26.479Z,22.27
2022-11-24T03:27:57.985Z,24.07
2022-11-24T03:30:28.811Z,21.73
2022-11-24T03:32:57.845Z,21.70
2022-11-24T03:35:27.554Z,21.57
2022-11-24T03:37:56.438Z,22.10
2022-11-24T03:40:25.799Z,23.30
2022-11-24T03:42:54.746Z,22.17
2022-11-24T03:45:45.428Z,22.53
2022-11-24T03:48:14.532Z,21.63
2022-11-24T03:50:43.319Z,22.07
2022-11-24T03:53:12.074Z,21.90
2022-11-24T03:55:41.724Z,23.90
2022-11-24T03:58:10.989Z,23.03
2022-11-24T04:00:40.264Z,22.10
2022-11-24T04:03:09.146Z,22.33
2022-11-24T04:05:40.080Z,23.17
2022-11-24T04:08:09.635Z,21.50
2022-11-24T04:10:40.484Z,22.47
2022-11-24T04:13:13.027Z,22.23
2022-11-24T04:15:43.362Z,21.13
2022-11-24T04:18:13.876Z,21.63
2022-11-24T04:20:44.659Z,22.10
2022-11-24T04:23:13.397Z,21.93
2022-11-24T04:25:43.798Z,22.30
2022-11-24T04:28:13.460Z,22.57
2022-11-24T04:30:45.025Z,22.43
2022-11-24T04:33:15.750Z,23.43
2022-11-24T04:35:45.943Z,22.73
2022-11-24T04:39:19.815Z,23.93
2022-11-24T04:41:04.931Z,21.77
2022-11-24T04:43:40.299Z,23.07
2022-11-24T04:46:12.068Z,22.33
2022-11-24T04:48:42.745Z,23.70
2022-11-24T04:51:14.443Z,21.93
2022-11-24T04:53:43.416Z,22.57
2022-11-24T04:56:12.938Z,22.73
2022-11-24T04:58:41.864Z,22.83
2022-11-24T05:01:11.082Z,24.13
2022-11-24T05:03:40.278Z,23.07
2022-11-24T05:06:10.171Z,22.60
2022-11-24T05:08:41.003Z,23.47
2022-11-24T05:11:09.794Z,23.73
2022-11-24T05:13:38.582Z,24.07
2022-11-24T05:16:07.983Z,25.17
2022-11-24T05:18:38.030Z,26.10
2022-11-24T05:21:07.235Z,24.70
2022-11-24T05:23:36.108Z,25.33
2022-11-24T05:26:06.365Z,25.37
2022-11-24T05:28:35.139Z,26.60
2022-11-24T05:31:04.774Z,25.87
2022-11-24T05:33:34.130Z,26.30
2022-11-24T05:36:04.050Z,25.40
2022-11-24T05:38:33.182Z,26.87
2022-11-24T05:41:02.954Z,27.50
2022-11-24T05:43:33.117Z,28.47
2022-11-24T05:46:02.048Z,27.73
2022-11-24T05:48:30.938Z,28.13
2022-11-24T05:51:00.124Z,28.83
2022-11-24T05:53:28.906Z,28.83
2022-11-24T05:55:57.702Z,28.70
2022-11-24T05:58:26.410Z,31.03
2022-11-24T06:00:56.468Z,30.70
2022-11-24T06:03:25.562Z,30.40
2022-11-24T06:05:54.798Z,32.03
2022-11-24T06:08:28.190Z,30.70
2022-11-24T06:11:17.253Z,31.97
2022-11-24T06:13:47.083Z,32.07
2022-11-24T06:16:18.400Z,31.00
2022-11-24T06:18:47.404Z,31.47
2022-11-24T06:21:17.357Z,30.13
2022-11-24T06:23:49.338Z,33.07
2022-11-24T06:26:19.059Z,33.37
2022-11-24T06:28:48.027Z,32.30
2022-11-24T06:31:18.870Z,31.90
2022-11-24T06:33:48.281Z,31.13
2022-11-24T06:36:17.708Z,30.23
2022-11-24T06:38:46.670Z,31.90
2022-11-24T06:41:17.043Z,32.20
2022-11-24T06:43:46.783Z,33.87
2022-11-24T06:46:17.773Z,32.23
2022-11-24T06:48:46.670Z,30.87
2022-11-24T06:51:15.264Z,33.87
2022-11-24T06:53:44.023Z,31.40
2022-11-24T06:56:16.681Z,32.10
2022-11-24T06:58:47.766Z,30.80
2022-11-24T07:01:18.923Z,33.40
2022-11-24T07:03:48.439Z,31.87
2022-11-24T07:06:17.190Z,29.93
2022-11-24T07:08:45.963Z,29.57
2022-11-24T07:11:17.757Z,30.87
2022-11-24T07:13:47.684Z,30.23
2022-11-24T07:16:19.250Z,30.90
2022-11-24T07:18:48.769Z,29.90
2022-11-24T07:21:17.901Z,31.07
2022-11-24T07:23:49.072Z,30.37
2022-11-24T07:26:18.823Z,29.90
2022-11-24T07:28:48.277Z,29.47
2022-11-24T07:31:20.221Z,27.07
2022-11-24T07:33:49.857Z,31.07
2022-11-24T07:36:19.062Z,29.53
2022-11-24T07:38:48.020Z,29.87
2022-11-24T07:41:19.426Z,29.10
2022-11-24T07:43:49.291Z,28.47
2022-11-24T07:46:21.277Z,28.30
2022-11-24T07:48:49.938Z,29.00
2022-11-24T07:51:18.839Z,29.13
2022-11-24T07:53:47.875Z,26.77
2022-11-24T07:56:17.284Z,26.17
2022-11-24T07:58:51.401Z,27.27
2022-11-24T08:01:23.237Z,27.40
2022-11-24T08:03:52.138Z,24.77
2022-11-24T08:06:27.427Z,25.07
2022-11-24T08:09:00.143Z,25.77
2022-11-24T08:11:31.529Z,23.77
2022-11-24T08:14:00.242Z,24.27
2022-11-24T08:16:30.562Z,25.03
2022-11-24T08:18:59.096Z,25.47
2022-11-24T08:21:27.985Z,24.20
2022-11-24T08:23:57.484Z,24.50
2022-11-24T08:26:26.852Z,23.83
2022-11-24T08:28:57.807Z,23.93
2022-11-24T08:31:32.969Z,23.53
2022-11-24T08:34:04.791Z,22.23
2022-11-24T08:36:34.452Z,22.60
2022-11-24T08:39:03.780Z,23.57
2022-11-24T08:41:33.311Z,22.17
2022-11-24T08:44:02.108Z,23.33
2022-11-24T08:46:31.173Z,21.63
2022-11-24T08:49:00.360Z,21.27
2022-11-24T08:51:31.249Z,22.23
2022-11-24T08:54:01.269Z,20.80
2022-11-24T08:56:31.571Z,21.30
2022-11-24T08:59:01.170Z,21.03
2022-11-24T09:01:31.148Z,19.60
2022-11-24T09:04:00.727Z,20.57
2022-11-24T09:06:31.822Z,21.83
2022-11-24T09:09:00.766Z,21.13
2022-11-24T09:11:31.196Z,22.43
2022-11-24T09:13:59.645Z,21.30
2022-11-24T09:16:29.655Z,21.40
2022-11-24T09:18:59.798Z,19.23
2022-11-24T09:21:30.358Z,19.43
2022-11-24T09:23:58.993Z,20.87
2022-11-24T09:26:29.267Z,19.57
2022-11-24T09:29:00.624Z,19.07
2022-11-24T09:31:30.762Z,20.63
2022-11-24T09:33:59.770Z,18.57
2022-11-24T09:36:32.131Z,18.83
2022-11-24T09:39:00.928Z,18.43
2022-11-24T09:41:39.664Z,19.33
2022-11-24T09:44:27.232Z,18.90
2022-11-24T09:47:01.691Z,18.90
2022-11-24T09:49:35.205Z,20.13
2022-11-24T09:52:10.184Z,20.00
2022-11-24T09:54:39.828Z,20.23
2022-11-24T09:57:14.248Z,19.83
2022-11-24T09:59:44.185Z,19.37
2022-11-24T10:02:13.967Z,18.40
2022-11-24T10:04:45.610Z,19.83
2022-11-24T10:07:24.292Z,19.40
2022-11-24T10:10:00.639Z,18.57
2022-11-24T10:12:43.582Z,20.13
2022-11-24T10:15:30.381Z,19.53
2022-11-24T10:18:17.031Z,19.13
2022-11-24T10:20:54.056Z,18.27
2022-11-24T10:23:41.121Z,20.40
2022-11-24T10:26:17.997Z,19.00
2022-11-24T10:28:52.272Z,20.00
2022-11-24T10:31:26.203Z,17.67
2022-11-24T10:33:54.970Z,18.67
2022-11-24T10:36:29.644Z,19.10
2022-11-24T10:39:05.117Z,19.90
2022-11-24T10:41:41.824Z,20.20
2022-11-24T10:44:15.786Z,20.87
2022-11-24T10:46:44.615Z,18.17
2022-11-24T10:49:18.934Z,18.93
2022-11-24T10:52:02.278Z,17.90
2022-11-24T10:54:32.290Z,17.43
2022-11-24T10:57:01.381Z,20.10
2022-11-24T10:59:38.393Z,21.63
2022-11-24T11:02:33.845Z,19.83
2022-11-24T11:05:28.697Z,18.83
2022-11-24T11:08:22.835Z,18.43
2022-11-24T11:11:15.285Z,20.03
2022-11-24T11:14:03.142Z,20.20
2022-11-24T11:16:36.567Z,20.30
2022-11-24T11:19:26.192Z,20.43
2022-11-24T11:22:02.768Z,19.53
2022-11-24T11:24:32.346Z,18.70
2022-11-24T11:27:05.299Z,20.13
2022-11-24T11:35:14.570Z,19.87
2022-11-24T11:37:43.403Z,21.97
2022-11-24T11:40:16.652Z,19.47
2022-11-24T11:43:02.464Z,20.57
2022-11-24T11:45:36.667Z,18.87
2022-11-24T11:48:21.781Z,20.53
2022-11-24T11:53:46.086Z,19.77
2022-11-24T11:56:25.479Z,19.07
2022-11-24T11:59:18.254Z,19.60
2022-11-24T12:02:18.728Z,18.50
2022-11-24T12:04:53.724Z,21.00
2022-11-24T12:07:52.591Z,19.87
2022-11-24T12:10:27.520Z,19.60
2022-11-24T12:13:05.264Z,19.57
2022-11-24T12:15:41.055Z,20.50
2022-11-24T12:18:55.920Z,19.90
2022-11-24T12:21:26.020Z,19.67
2022-11-24T12:24:04.790Z,21.03
2022-11-24T12:26:39.807Z,20.40
2022-11-24T12:29:41.867Z,18.83
2022-11-24T12:32:22.991Z,19.40
2022-11-24T12:34:55.880Z,18.57
2022-11-24T12:37:47.091Z,20.20
2022-11-24T12:40:19.171Z,18.00
2022-11-24T12:42:54.083Z,19.57
2022-11-24T12:45:29.721Z,18.93
2022-11-24T12:48:20.210Z,19.13
2022-11-24T12:50:49.325Z,19.10
2022-11-24T12:53:20.660Z,19.70
2022-11-24T12:55:49.644Z,20.97
2022-11-24T12:58:24.086Z,18.73
2022-11-24T13:01:09.263Z,18.13
2022-11-24T13:03:48.712Z,19.07
2022-11-24T13:06:19.985Z,18.33
2022-11-24T13:08:49.173Z,18.67
2022-11-24T13:11:39.183Z,18.80
2022-11-24T13:14:12.899Z,17.13
2022-11-24T13:19:42.071Z,19.40
2022-11-24T13:22:17.781Z,18.17
2022-11-24T13:24:46.639Z,18.80
2022-11-24T13:27:30.294Z,18.33
2022-11-24T13:29:59.017Z,17.33
2022-11-24T13:32:59.943Z,18.43
2022-11-24T13:35:30.999Z,18.07
2022-11-24T13:38:00.104Z,19.00
2022-11-24T13:40:59.714Z,19.40
2022-11-24T13:43:32.255Z,19.27
2022-11-24T13:46:03.857Z,18.47
2022-11-24T13:48:57.507Z,18.57
2022-11-24T13:51:27.894Z,18.07
2022-11-24T13:53:58.712Z,19.00
2022-11-24T13:56:31.145Z,17.67
2022-11-24T13:59:02.007Z,19.60
2022-11-24T14:01:32.640Z,20.07
2022-11-24T14:04:30.455Z,17.97
2022-11-24T14:07:08.295Z,19.03
2022-11-24T14:09:42.523Z,19.20
2022-11-24T14:12:16.132Z,19.13
2022-11-24T14:14:46.388Z,19.93
2022-11-24T14:17:18.756Z,19.63
2022-11-24T14:19:49.099Z,17.23
2022-11-24T14:22:22.620Z,20.00
2022-11-24T14:24:56.084Z,18.63
2022-11-24T14:27:30.939Z,19.27
2022-11-24T14:30:01.662Z,17.57
2022-11-24T14:32:30.355Z,19.23
2022-11-24T14:34:59.390Z,18.67
2022-11-24T14:37:29.447Z,17.20
2022-11-24T14:39:58.051Z,18.47
2022-11-24T14:42:28.489Z,18.60
2022-11-24T14:44:59.140Z,18.73
2022-11-24T14:47:31.970Z,18.83
2022-11-24T14:50:09.664Z,18.07
2022-11-24T14:52:46.638Z,22.17
2022-11-24T14:55:27.718Z,19.27
2022-11-24T14:57:56.577Z,18.80
2022-11-24T15:00:31.147Z,19.20
2022-11-24T15:03:17.369Z,18.03
2022-11-24T15:05:56.939Z,17.43
2022-11-24T15:08:28.562Z,17.80
2022-11-24T15:10:59.847Z,17.00
2022-11-24T15:13:37.128Z,19.33
2022-11-24T15:16:08.188Z,18.57
2022-11-24T15:18:43.976Z,18.33
2022-11-24T15:21:18.957Z,17.33
2022-11-24T15:24:08.205Z,17.80
2022-11-24T15:26:41.922Z,17.67
2022-11-24T15:29:11.705Z,18.27
2022-11-24T15:31:41.425Z,19.03
2022-11-24T15:34:14.362Z,18.40
2022-11-24T15:36:43.162Z,18.77
2022-11-24T15:39:13.979Z,17.80
2022-11-24T15:41:43.561Z,17.10
2022-11-24T15:44:12.903Z,17.93
2022-11-24T15:46:42.403Z,18.17
2022-11-24T15:49:11.552Z,18.30
2022-11-24T15:51:44.029Z,19.20
2022-11-24T15:54:16.392Z,20.10
2022-11-24T15:56:45.530Z,20.97
2022-11-24T15:59:20.180Z,28.63
2022-11-24T16:01:49.868Z,28.50
2022-11-24T16:04:19.130Z,22.10
2022-11-24T16:06:48.170Z,20.73
2022-11-24T16:09:18.438Z,18.57
2022-11-24T16:11:47.536Z,20.13
2022-11-24T16:14:16.235Z,19.60
2022-11-24T16:16:45.193Z,19.03
2022-11-24T16:19:16.010Z,18.77
2022-11-24T16:21:44.702Z,18.00
2022-11-24T16:24:13.665Z,19.00
2022-11-24T16:26:44.309Z,19.07
2022-11-24T16:29:13.425Z,17.47
2022-11-24T16:31:43.621Z,17.03
2022-11-24T16:34:12.351Z,21.03
2022-11-24T16:36:41.048Z,18.83
2022-11-24T16:39:09.859Z,17.63
2022-11-24T16:41:39.133Z,18.23
2022-11-24T16:44:09.216Z,16.63
2022-11-24T16:46:38.333Z,19.27
2022-11-24T16:49:07.031Z,22.07
2022-11-24T16:51:35.513Z,18.70
2022-11-24T16:54:05.094Z,18.67
2022-11-24T16:56:33.762Z,19.27
2022-11-24T16:59:02.987Z,20.63
2022-11-24T17:01:33.428Z,18.97
2022-11-24T17:04:03.269Z,20.77
2022-11-24T17:06:34.885Z,21.90
2022-11-24T17:09:03.792Z,20.23
2022-11-24T17:11:32.948Z,18.70
2022-11-24T17:14:01.774Z,18.93
2022-11-24T17:16:32.647Z,17.70
2022-11-24T17:19:01.554Z,17.80
2022-11-24T17:21:31.627Z,18.53
2022-11-24T17:24:01.524Z,19.13
2022-11-24T17:26:30.625Z,19.50
2022-11-24T17:28:59.446Z,24.43
2022-11-24T17:31:32.531Z,19.70
2022-11-24T17:34:04.251Z,21.27
2022-11-24T17:36:34.737Z,19.90
2022-11-24T17:39:05.283Z,20.90
2022-11-24T17:41:34.404Z,21.63
2022-11-24T17:44:03.168Z,22.33
2022-11-24T17:46:33.870Z,23.03
2022-11-24T17:49:04.670Z,20.10
2022-11-24T17:51:33.543Z,20.07
2022-11-24T17:54:18.641Z,19.60
2022-11-24T17:56:51.442Z,20.23
2022-11-24T17:59:20.853Z,20.00
2022-11-24T18:01:49.819Z,19.27
2022-11-24T18:04:23.630Z,21.10
2022-11-24T18:06:52.667Z,22.50
2022-11-24T18:09:21.725Z,19.00
2022-11-24T18:11:52.224Z,19.33
2022-11-24T18:14:22.158Z,21.60
2022-11-24T18:16:51.275Z,20.13
2022-11-24T18:19:19.972Z,20.63
2022-11-24T18:21:50.220Z,22.00
2022-11-24T18:24:23.899Z,20.23
2022-11-24T18:26:53.229Z,20.80
2022-11-24T18:29:22.540Z,20.90
2022-11-24T18:31:51.320Z,20.30
2022-11-24T18:34:19.779Z,20.60
2022-11-24T18:36:52.216Z,21.13
2022-11-24T18:39:21.831Z,21.83
2022-11-24T18:41:50.602Z,20.93
2022-11-24T18:44:19.411Z,20.53
2022-11-24T18:46:48.487Z,21.87
2022-11-24T18:49:17.168Z,20.77
2022-11-24T18:51:45.757Z,21.40
2022-11-24T18:54:16.281Z,19.80
2022-11-24T18:56:45.238Z,19.87
2022-11-24T18:59:15.457Z,20.30
2022-11-24T19:01:46.383Z,19.73
2022-11-24T19:04:15.416Z,21.30
2022-11-24T19:06:44.692Z,20.43
2022-11-24T19:09:16.567Z,21.23
2022-11-24T19:11:46.272Z,22.20
2022-11-24T19:14:16.843Z,19.33
2022-11-24T19:16:46.316Z,20.37
2022-11-24T19:19:17.102Z,21.40
2022-11-24T19:21:46.056Z,21.03
2022-11-24T19:24:16.805Z,20.93
2022-11-24T19:26:45.761Z,21.57
2022-11-24T19:29:14.283Z,22.73
2022-11-24T19:31:44.282Z,21.60
2022-11-24T19:34:14.111Z,22.33
2022-11-24T19:36:43.701Z,21.10
2022-11-24T19:39:17.022Z,21.27
2022-11-24T19:41:46.034Z,24.27
2022-11-24T19:44:15.626Z,21.57
2022-11-24T19:46:44.667Z,25.33
2022-11-24T19:49:14.260Z,23.50
2022-11-24T19:51:44.224Z,25.00
2022-11-24T19:54:14.013Z,25.80
2022-11-24T19:56:44.798Z,25.67
2022-11-24T19:59:15.489Z,25.57
2022-11-24T20:01:44.757Z,25.90
2022-11-24T20:04:15.731Z,25.83
2022-11-24T20:06:47.319Z,25.97
2022-11-24T20:09:18.203Z,25.50
2022-11-24T20:11:49.573Z,25.97
2022-11-24T20:14:19.572Z,25.47
2022-11-24T20:16:48.496Z,26.13
2022-11-24T20:19:18.607Z,25.97
2022-11-24T20:21:50.124Z,26.73
2022-11-24T20:24:20.773Z,26.33
2022-11-24T20:26:53.056Z,27.17
2022-11-24T20:29:22.695Z,27.40
2022-11-24T20:31:53.932Z,26.37
2022-11-24T20:34:24.611Z,27.07
2022-11-24T20:36:54.295Z,26.93
2022-11-24T20:39:26.424Z,28.30
2022-11-24T20:41:57.652Z,29.43
2022-11-24T20:44:27.974Z,29.67
2022-11-24T20:46:59.980Z,28.07
2022-11-24T20:49:30.652Z,28.07
2022-11-24T20:52:00.420Z,30.33
2022-11-24T20:54:29.803Z,30.00
2022-11-24T20:57:01.039Z,29.30
2022-11-24T20:59:30.133Z,28.93
2022-11-24T21:01:59.563Z,30.10
2022-11-24T21:04:29.777Z,29.60
2022-11-24T21:06:58.878Z,29.67
2022-11-24T21:09:28.479Z,29.53
2022-11-24T21:11:58.318Z,30.63
2022-11-24T21:14:33.952Z,31.33
2022-11-24T21:17:03.918Z,31.63
2022-11-24T21:19:33.350Z,31.20
2022-11-24T21:22:02.533Z,31.27
2022-11-24T21:24:31.938Z,30.87
2022-11-24T21:27:01.313Z,31.73
2022-11-24T21:29:31.735Z,32.97
2022-11-24T21:32:00.412Z,31.43
2022-11-24T21:34:29.666Z,31.20
2022-11-24T21:36:58.383Z,32.37
2022-11-24T21:39:27.420Z,31.97
2022-11-24T21:41:56.533Z,29.73
2022-11-24T21:44:25.396Z,29.37
2022-11-24T21:46:56.304Z,28.33
2022-11-24T21:49:25.370Z,26.60
2022-11-24T21:51:56.118Z,26.70
2022-11-24T21:54:25.413Z,26.77
2022-11-24T21:56:55.876Z,26.40
2022-11-24T21:59:24.771Z,26.27
2022-11-24T22:01:54.899Z,25.50
2022-11-24T22:04:23.596Z,25.47
2022-11-24T22:06:54.206Z,25.10
2022-11-24T22:09:23.094Z,24.53
2022-11-24T22:11:52.705Z,23.63
2022-11-24T22:14:23.520Z,25.33
2022-11-24T22:16:54.620Z,25.37
2022-11-24T22:19:23.462Z,24.80
2022-11-24T22:21:52.390Z,23.13
2022-11-24T22:24:25.863Z,23.63
2022-11-24T22:26:56.246Z,23.17
2022-11-24T22:29:24.959Z,22.10
2022-11-24T22:31:55.207Z,19.90
2022-11-24T22:34:23.890Z,21.63
2022-11-24T22:36:52.920Z,20.50
2022-11-24T22:39:21.780Z,19.73
2022-11-24T22:41:50.528Z,20.33
2022-11-24T22:44:19.323Z,19.23
2022-11-24T22:46:48.394Z,19.43
2022-11-24T22:49:18.644Z,17.87
2022-11-24T22:51:47.264Z,18.57
2022-11-24T22:54:16.348Z,19.47
2022-11-24T22:56:44.840Z,18.70
2022-11-24T22:59:13.649Z,18.57
2022-11-24T23:01:42.844Z,18.00
2022-11-24T23:04:12.049Z,17.70
2022-11-24T23:06:42.505Z,17.97
2022-11-24T23:09:13.189Z,18.50
2022-11-24T23:11:42.762Z,17.73
2022-11-24T23:14:14.428Z,18.40
2022-11-24T23:16:43.900Z,17.83
2022-11-24T23:19:12.958Z,19.97
2022-11-24T23:21:43.293Z,17.67
2022-11-24T23:24:12.779Z,18.37
2022-11-24T23:26:43.185Z,18.50
2022-11-24T23:29:12.109Z,17.97
2022-11-24T23:31:41.204Z,19.03
2022-11-24T23:34:10.203Z,19.43
2022-11-24T23:36:39.676Z,18.83
2022-11-24T23:39:12.584Z,19.50
2022-11-24T23:41:41.823Z,18.13
2022-11-24T23:44:10.616Z,19.37
2022-11-24T23:46:39.118Z,21.47
2022-11-24T23:49:07.977Z,20.27
2022-11-24T23:51:38.379Z,21.03
2022-11-24T23:54:10.691Z,22.47
2022-11-24T23:56:39.690Z,23.03
2022-11-24T23:59:11.384Z,23.43
